sensor_id;sensor_type;location;lat;lon;timestamp;P1;durP1;ratioP1;P2;durP2;ratioP2
30181;SDS011;16990;49.056;9.240;2022-08-24T00:01:50;4.22;;;1.67;;
30181;SDS011;16990;49.056;9.240;2022-08-24T00:04:37;7.55;;;1.67;;
30181;SDS011;16990;49.056;9.240;2022-08-24T00:07:25;3.63;;;1.70;;
30181;SDS011;16990;49.056;9.240;2022-08-24T00:10:12;8.73;;;2.10;;
30181;SDS011;16990;49.056;9.240;2022-08-24T00:12:59;4.20;;;1.92;;
30181;SDS011;16990;49.056;9.240;2022-08-24T00:15:46;4.57;;;2.13;;
30181;SDS011;16990;49.056;9.240;2022-08-24T00:18:33;3.95;;;2.28;;
30181;SDS011;16990;49.056;9.240;2022-08-24T00:21:20;5.55;;;2.10;;
30181;SDS011;16990;49.056;9.240;2022-08-24T00:24:08;7.78;;;2.47;;
30181;SDS011;16990;49.056;9.240;2022-08-24T00:26:55;7.88;;;2.42;;
30181;SDS011;16990;49.056;9.240;2022-08-24T00:29:43;7.45;;;1.92;;
30181;SDS011;16990;49.056;9.240;2022-08-24T00:32:30;3.70;;;2.13;;
30181;SDS011;16990;49.056;9.240;2022-08-24T00:35:17;5.22;;;2.22;;
30181;SDS011;16990;49.056;9.240;2022-08-24T00:38:04;11.10;;;2.35;;
30181;SDS011;16990;49.056;9.240;2022-08-24T00:40:52;3.30;;;2.05;;
30181;SDS011;16990;49.056;9.240;2022-08-24T00:43:49;4.35;;;2.78;;
30181;SDS011;16990;49.056;9.240;2022-08-24T00:46:40;5.85;;;2.08;;
30181;SDS011;16990;49.056;9.240;2022-08-24T00:49:32;4.88;;;2.40;;
30181;SDS011;16990;49.056;9.240;2022-08-24T00:52:23;6.25;;;1.92;;
30181;SDS011;16990;49.056;9.240;2022-08-24T00:55:14;3.47;;;2.08;;
30181;SDS011;16990;49.056;9.240;2022-08-24T00:58:06;3.97;;;2.30;;
30181;SDS011;16990;49.056;9.240;2022-08-24T01:00:58;5.63;;;2.60;;
30181;SDS011;16990;49.056;9.240;2022-08-24T01:03:47;5.15;;;2.13;;
30181;SDS011;16990;49.056;9.240;2022-08-24T01:06:36;9.00;;;2.42;;
30181;SDS011;16990;49.056;9.240;2022-08-24T01:09:22;3.45;;;1.75;;
30181;SDS011;16990;49.056;9.240;2022-08-24T01:12:09;6.03;;;1.80;;
30181;SDS011;16990;49.056;9.240;2022-08-24T01:14:58;6.85;;;1.90;;
30181;SDS011;16990;49.056;9.240;2022-08-24T01:17:47;8.65;;;1.85;;
30181;SDS011;16990;49.056;9.240;2022-08-24T01:20:54;7.20;;;1.80;;
30181;SDS011;16990;49.056;9.240;2022-08-24T01:23:46;10.27;;;2.28;;
30181;SDS011;16990;49.056;9.240;2022-08-24T01:26:37;4.07;;;1.90;;
30181;SDS011;16990;49.056;9.240;2022-08-24T01:29:28;5.15;;;1.83;;
30181;SDS011;16990;49.056;9.240;2022-08-24T01:32:17;6.70;;;2.40;;
30181;SDS011;16990;49.056;9.240;2022-08-24T01:35:05;2.92;;;2.05;;
30181;SDS011;16990;49.056;9.240;2022-08-24T01:37:53;7.22;;;2.40;;
30181;SDS011;16990;49.056;9.240;2022-08-24T01:40:45;4.65;;;1.77;;
30181;SDS011;16990;49.056;9.240;2022-08-24T01:43:35;5.15;;;2.35;;
30181;SDS011;16990;49.056;9.240;2022-08-24T01:46:22;4.55;;;1.83;;
30181;SDS011;16990;49.056;9.240;2022-08-24T01:49:09;4.47;;;2.22;;
30181;SDS011;16990;49.056;9.240;2022-08-24T01:51:56;4.25;;;1.80;;
30181;SDS011;16990;49.056;9.240;2022-08-24T01:54:43;5.72;;;2.13;;
30181;SDS011;16990;49.056;9.240;2022-08-24T01:57:32;4.60;;;2.00;;
30181;SDS011;16990;49.056;9.240;2022-08-24T02:00:19;4.00;;;1.77;;
30181;SDS011;16990;49.056;9.240;2022-08-24T02:03:06;6.55;;;1.88;;
30181;SDS011;16990;49.056;9.240;2022-08-24T02:05:53;3.47;;;1.77;;
30181;SDS011;16990;49.056;9.240;2022-08-24T02:08:39;2.28;;;1.60;;
30181;SDS011;16990;49.056;9.240;2022-08-24T02:11:27;3.50;;;1.85;;
30181;SDS011;16990;49.056;9.240;2022-08-24T02:14:15;4.22;;;1.75;;
30181;SDS011;16990;49.056;9.240;2022-08-24T02:17:03;2.05;;;1.50;;
30181;SDS011;16990;49.056;9.240;2022-08-24T02:19:52;4.32;;;1.95;;
30181;SDS011;16990;49.056;9.240;2022-08-24T02:22:39;5.85;;;2.08;;
30181;SDS011;16990;49.056;9.240;2022-08-24T02:25:26;6.13;;;1.85;;
30181;SDS011;16990;49.056;9.240;2022-08-24T02:28:14;2.33;;;1.65;;
30181;SDS011;16990;49.056;9.240;2022-08-24T02:31:03;7.00;;;2.35;;
30181;SDS011;16990;49.056;9.240;2022-08-24T02:33:51;5.25;;;2.05;;
30181;SDS011;16990;49.056;9.240;2022-08-24T02:36:38;4.82;;;2.38;;
30181;SDS011;16990;49.056;9.240;2022-08-24T02:39:25;10.77;;;2.17;;
30181;SDS011;16990;49.056;9.240;2022-08-24T02:42:12;3.85;;;2.17;;
30181;SDS011;16990;49.056;9.240;2022-08-24T02:44:59;6.55;;;2.15;;
30181;SDS011;16990;49.056;9.240;2022-08-24T02:47:48;6.90;;;2.30;;
30181;SDS011;16990;49.056;9.240;2022-08-24T02:50:36;4.43;;;2.42;;
30181;SDS011;16990;49.056;9.240;2022-08-24T02:53:24;4.32;;;1.95;;
30181;SDS011;16990;49.056;9.240;2022-08-24T02:56:11;4.10;;;2.60;;
30181;SDS011;16990;49.056;9.240;2022-08-24T02:58:58;3.83;;;2.35;;
30181;SDS011;16990;49.056;9.240;2022-08-24T03:01:46;6.50;;;2.63;;
30181;SDS011;16990;49.056;9.240;2022-08-24T03:04:35;8.75;;;2.05;;
30181;SDS011;16990;49.056;9.240;2022-08-24T03:07:22;3.50;;;2.50;;
30181;SDS011;16990;49.056;9.240;2022-08-24T03:10:09;9.60;;;3.50;;
30181;SDS011;16990;49.056;9.240;2022-08-24T03:12:56;4.00;;;2.80;;
30181;SDS011;16990;49.056;9.240;2022-08-24T03:15:45;4.60;;;2.25;;
30181;SDS011;16990;49.056;9.240;2022-08-24T03:18:32;5.65;;;2.65;;
30181;SDS011;16990;49.056;9.240;2022-08-24T03:21:21;7.97;;;2.75;;
30181;SDS011;16990;49.056;9.240;2022-08-24T03:24:08;6.03;;;2.40;;
30181;SDS011;16990;49.056;9.240;2022-08-24T03:26:55;9.48;;;2.35;;
30181;SDS011;16990;49.056;9.240;2022-08-24T03:29:42;7.47;;;2.83;;
30181;SDS011;16990;49.056;9.240;2022-08-24T03:32:29;4.45;;;2.30;;
30181;SDS011;16990;49.056;9.240;2022-08-24T03:35:16;8.57;;;3.08;;
30181;SDS011;16990;49.056;9.240;2022-08-24T03:38:07;6.13;;;2.83;;
30181;SDS011;16990;49.056;9.240;2022-08-24T03:40:54;10.65;;;3.47;;
30181;SDS011;16990;49.056;9.240;2022-08-24T03:43:41;9.70;;;3.85;;
30181;SDS011;16990;49.056;9.240;2022-08-24T03:46:33;7.10;;;3.20;;
30181;SDS011;16990;49.056;9.240;2022-08-24T03:49:22;7.10;;;3.00;;
30181;SDS011;16990;49.056;9.240;2022-08-24T03:52:09;7.32;;;3.20;;
30181;SDS011;16990;49.056;9.240;2022-08-24T03:54:57;5.72;;;2.50;;
30181;SDS011;16990;49.056;9.240;2022-08-24T03:57:44;9.27;;;2.67;;
30181;SDS011;16990;49.056;9.240;2022-08-24T04:00:31;6.75;;;2.50;;
30181;SDS011;16990;49.056;9.240;2022-08-24T04:03:18;5.60;;;2.53;;
30181;SDS011;16990;49.056;9.240;2022-08-24T04:06:05;7.05;;;2.50;;
30181;SDS011;16990;49.056;9.240;2022-08-24T04:08:54;4.18;;;2.90;;
30181;SDS011;16990;49.056;9.240;2022-08-24T04:11:43;7.95;;;3.13;;
30181;SDS011;16990;49.056;9.240;2022-08-24T04:14:30;7.97;;;3.40;;
30181;SDS011;16990;49.056;9.240;2022-08-24T04:17:17;6.88;;;2.80;;
30181;SDS011;16990;49.056;9.240;2022-08-24T04:20:04;4.40;;;3.22;;
30181;SDS011;16990;49.056;9.240;2022-08-24T04:22:53;7.60;;;3.00;;
30181;SDS011;16990;49.056;9.240;2022-08-24T04:25:41;5.97;;;3.08;;
30181;SDS011;16990;49.056;9.240;2022-08-24T04:28:30;7.85;;;3.42;;
30181;SDS011;16990;49.056;9.240;2022-08-24T04:31:17;8.77;;;3.70;;
30181;SDS011;16990;49.056;9.240;2022-08-24T04:34:05;9.18;;;3.08;;
30181;SDS011;16990;49.056;9.240;2022-08-24T04:36:53;6.07;;;3.55;;
30181;SDS011;16990;49.056;9.240;2022-08-24T04:39:39;7.93;;;3.63;;
30181;SDS011;16990;49.056;9.240;2022-08-24T04:42:27;4.57;;;3.10;;
30181;SDS011;16990;49.056;9.240;2022-08-24T04:45:17;6.78;;;3.63;;
30181;SDS011;16990;49.056;9.240;2022-08-24T04:48:04;5.50;;;3.35;;
30181;SDS011;16990;49.056;9.240;2022-08-24T04:50:51;6.68;;;3.42;;
30181;SDS011;16990;49.056;9.240;2022-08-24T04:53:38;5.10;;;3.03;;
30181;SDS011;16990;49.056;9.240;2022-08-24T04:56:25;8.48;;;4.20;;
30181;SDS011;16990;49.056;9.240;2022-08-24T04:59:12;6.03;;;3.15;;
30181;SDS011;16990;49.056;9.240;2022-08-24T05:02:01;14.30;;;3.25;;
30181;SDS011;16990;49.056;9.240;2022-08-24T05:04:47;9.95;;;2.90;;
30181;SDS011;16990;49.056;9.240;2022-08-24T05:07:34;13.38;;;3.70;;
30181;SDS011;16990;49.056;9.240;2022-08-24T05:10:22;7.88;;;3.80;;
30181;SDS011;16990;49.056;9.240;2022-08-24T05:13:08;11.38;;;3.40;;
30181;SDS011;16990;49.056;9.240;2022-08-24T05:15:56;13.98;;;2.90;;
30181;SDS011;16990;49.056;9.240;2022-08-24T05:18:44;15.57;;;3.88;;
30181;SDS011;16990;49.056;9.240;2022-08-24T05:21:32;9.18;;;3.88;;
30181;SDS011;16990;49.056;9.240;2022-08-24T05:24:20;9.15;;;3.78;;
30181;SDS011;16990;49.056;9.240;2022-08-24T05:27:07;8.93;;;3.60;;
30181;SDS011;16990;49.056;9.240;2022-08-24T05:29:54;13.57;;;6.78;;
30181;SDS011;16990;49.056;9.240;2022-08-24T05:32:41;19.85;;;5.03;;
30181;SDS011;16990;49.056;9.240;2022-08-24T05:35:29;18.58;;;7.53;;
30181;SDS011;16990;49.056;9.240;2022-08-24T05:38:17;12.40;;;7.43;;
30181;SDS011;16990;49.056;9.240;2022-08-24T05:41:04;15.73;;;7.13;;
30181;SDS011;16990;49.056;9.240;2022-08-24T05:43:51;10.30;;;6.38;;
30181;SDS011;16990;49.056;9.240;2022-08-24T05:46:38;13.05;;;6.60;;
30181;SDS011;16990;49.056;9.240;2022-08-24T05:49:26;15.20;;;7.70;;
30181;SDS011;16990;49.056;9.240;2022-08-24T05:52:18;12.25;;;5.80;;
30181;SDS011;16990;49.056;9.240;2022-08-24T05:55:15;18.15;;;6.28;;
30181;SDS011;16990;49.056;9.240;2022-08-24T05:58:17;16.83;;;5.60;;
30181;SDS011;16990;49.056;9.240;2022-08-24T06:01:11;10.55;;;5.63;;
30181;SDS011;16990;49.056;9.240;2022-08-24T06:04:08;16.25;;;8.23;;
30181;SDS011;16990;49.056;9.240;2022-08-24T06:06:59;15.18;;;7.00;;
30181;SDS011;16990;49.056;9.240;2022-08-24T06:09:47;13.07;;;5.38;;
30181;SDS011;16990;49.056;9.240;2022-08-24T06:12:34;14.93;;;4.85;;
30181;SDS011;16990;49.056;9.240;2022-08-24T06:15:21;15.02;;;5.70;;
30181;SDS011;16990;49.056;9.240;2022-08-24T06:18:08;19.67;;;4.68;;
30181;SDS011;16990;49.056;9.240;2022-08-24T06:20:55;12.20;;;4.35;;
30181;SDS011;16990;49.056;9.240;2022-08-24T06:23:42;13.40;;;3.88;;
30181;SDS011;16990;49.056;9.240;2022-08-24T06:26:31;13.77;;;4.25;;
30181;SDS011;16990;49.056;9.240;2022-08-24T06:29:36;12.32;;;3.90;;
30181;SDS011;16990;49.056;9.240;2022-08-24T06:32:23;9.13;;;4.32;;
30181;SDS011;16990;49.056;9.240;2022-08-24T06:35:10;8.65;;;3.55;;
30181;SDS011;16990;49.056;9.240;2022-08-24T06:37:57;7.53;;;3.40;;
30181;SDS011;16990;49.056;9.240;2022-08-24T06:40:43;5.38;;;3.30;;
30181;SDS011;16990;49.056;9.240;2022-08-24T06:43:32;8.32;;;3.40;;
30181;SDS011;16990;49.056;9.240;2022-08-24T06:46:19;13.60;;;3.17;;
30181;SDS011;16990;49.056;9.240;2022-08-24T06:49:06;9.70;;;3.47;;
30181;SDS011;16990;49.056;9.240;2022-08-24T06:51:52;13.68;;;4.10;;
30181;SDS011;16990;49.056;9.240;2022-08-24T06:54:40;16.70;;;7.07;;
30181;SDS011;16990;49.056;9.240;2022-08-24T06:57:27;8.43;;;4.18;;
30181;SDS011;16990;49.056;9.240;2022-08-24T07:00:17;12.27;;;3.45;;
30181;SDS011;16990;49.056;9.240;2022-08-24T07:03:05;8.93;;;3.70;;
30181;SDS011;16990;49.056;9.240;2022-08-24T07:05:52;8.77;;;3.28;;
30181;SDS011;16990;49.056;9.240;2022-08-24T07:08:41;5.32;;;3.20;;
30181;SDS011;16990;49.056;9.240;2022-08-24T07:11:28;9.55;;;2.83;;
30181;SDS011;16990;49.056;9.240;2022-08-24T07:14:16;10.93;;;3.10;;
30181;SDS011;16990;49.056;9.240;2022-08-24T07:17:07;5.55;;;2.85;;
30181;SDS011;16990;49.056;9.240;2022-08-24T07:19:54;7.90;;;2.63;;
30181;SDS011;16990;49.056;9.240;2022-08-24T07:22:41;3.97;;;2.25;;
30181;SDS011;16990;49.056;9.240;2022-08-24T07:25:28;8.68;;;2.92;;
30181;SDS011;16990;49.056;9.240;2022-08-24T07:28:15;8.80;;;2.35;;
30181;SDS011;16990;49.056;9.240;2022-08-24T07:31:02;6.15;;;2.53;;
30181;SDS011;16990;49.056;9.240;2022-08-24T07:33:50;10.90;;;2.28;;
30181;SDS011;16990;49.056;9.240;2022-08-24T07:36:38;4.35;;;2.40;;
30181;SDS011;16990;49.056;9.240;2022-08-24T07:39:26;5.65;;;2.05;;
30181;SDS011;16990;49.056;9.240;2022-08-24T07:42:13;7.15;;;2.70;;
30181;SDS011;16990;49.056;9.240;2022-08-24T07:45:00;8.48;;;2.30;;
30181;SDS011;16990;49.056;9.240;2022-08-24T07:47:47;4.30;;;2.20;;
30181;SDS011;16990;49.056;9.240;2022-08-24T07:50:36;8.80;;;2.03;;
30181;SDS011;16990;49.056;9.240;2022-08-24T07:53:22;9.20;;;2.90;;
30181;SDS011;16990;49.056;9.240;2022-08-24T07:56:09;7.35;;;2.40;;
30181;SDS011;16990;49.056;9.240;2022-08-24T07:58:57;5.68;;;2.70;;
30181;SDS011;16990;49.056;9.240;2022-08-24T08:01:44;4.32;;;2.17;;
30181;SDS011;16990;49.056;9.240;2022-08-24T08:04:31;8.73;;;2.38;;
30181;SDS011;16990;49.056;9.240;2022-08-24T08:07:19;6.20;;;2.55;;
30181;SDS011;16990;49.056;9.240;2022-08-24T08:10:07;9.80;;;2.20;;
30181;SDS011;16990;49.056;9.240;2022-08-24T08:12:55;4.60;;;2.35;;
30181;SDS011;16990;49.056;9.240;2022-08-24T08:15:42;2.90;;;2.08;;
30181;SDS011;16990;49.056;9.240;2022-08-24T08:18:29;3.63;;;2.15;;
30181;SDS011;16990;49.056;9.240;2022-08-24T08:21:17;7.38;;;2.58;;
30181;SDS011;16990;49.056;9.240;2022-08-24T08:24:22;5.87;;;2.30;;
30181;SDS011;16990;49.056;9.240;2022-08-24T08:27:10;6.78;;;2.08;;
30181;SDS011;16990;49.056;9.240;2022-08-24T08:29:59;3.75;;;1.95;;
30181;SDS011;16990;49.056;9.240;2022-08-24T08:32:46;3.10;;;1.83;;
30181;SDS011;16990;49.056;9.240;2022-08-24T08:35:33;10.10;;;2.60;;
30181;SDS011;16990;49.056;9.240;2022-08-24T08:38:21;4.65;;;1.90;;
30181;SDS011;16990;49.056;9.240;2022-08-24T08:41:17;9.48;;;1.80;;
30181;SDS011;16990;49.056;9.240;2022-08-24T08:44:31;4.85;;;2.17;;
30181;SDS011;16990;49.056;9.240;2022-08-24T08:47:36;13.98;;;2.78;;
30181;SDS011;16990;49.056;9.240;2022-08-24T08:50:40;2.55;;;1.67;;
30181;SDS011;16990;49.056;9.240;2022-08-24T09:00:20;2.47;;;1.70;;
30181;SDS011;16990;49.056;9.240;2022-08-24T09:03:14;4.22;;;2.28;;
30181;SDS011;16990;49.056;9.240;2022-08-24T09:06:37;4.00;;;1.73;;
30181;SDS011;16990;49.056;9.240;2022-08-24T09:12:52;1.50;;;1.30;;
30181;SDS011;16990;49.056;9.240;2022-08-24T09:15:59;4.95;;;2.05;;
30181;SDS011;16990;49.056;9.240;2022-08-24T09:19:05;1.40;;;1.30;;
30181;SDS011;16990;49.056;9.240;2022-08-24T09:22:09;2.90;;;1.20;;
30181;SDS011;16990;49.056;9.240;2022-08-24T09:25:02;1.70;;;1.40;;
30181;SDS011;16990;49.056;9.240;2022-08-24T09:28:03;4.57;;;1.45;;
30181;SDS011;16990;49.056;9.240;2022-08-24T09:31:06;3.47;;;1.63;;
30181;SDS011;16990;49.056;9.240;2022-08-24T09:34:07;2.38;;;1.35;;
30181;SDS011;16990;49.056;9.240;2022-08-24T09:37:03;2.83;;;1.65;;
30181;SDS011;16990;49.056;9.240;2022-08-24T09:40:25;3.53;;;1.67;;
30181;SDS011;16990;49.056;9.240;2022-08-24T09:43:45;5.95;;;2.10;;
30181;SDS011;16990;49.056;9.240;2022-08-24T09:46:58;3.83;;;1.40;;
30181;SDS011;16990;49.056;9.240;2022-08-24T09:50:24;4.07;;;1.73;;
30181;SDS011;16990;49.056;9.240;2022-08-24T09:56:35;2.58;;;1.30;;
30181;SDS011;16990;49.056;9.240;2022-08-24T09:59:43;2.70;;;1.42;;
30181;SDS011;16990;49.056;9.240;2022-08-24T10:02:53;3.30;;;1.55;;
30181;SDS011;16990;49.056;9.240;2022-08-24T10:09:07;1.65;;;1.50;;
30181;SDS011;16990;49.056;9.240;2022-08-24T10:12:07;2.13;;;1.23;;
30181;SDS011;16990;49.056;9.240;2022-08-24T10:15:07;6.10;;;1.63;;
30181;SDS011;16990;49.056;9.240;2022-08-24T10:18:03;3.45;;;1.40;;
30181;SDS011;16990;49.056;9.240;2022-08-24T10:21:08;2.90;;;1.80;;
30181;SDS011;16990;49.056;9.240;2022-08-24T10:24:13;4.35;;;1.63;;
30181;SDS011;16990;49.056;9.240;2022-08-24T10:27:17;2.95;;;1.52;;
30181;SDS011;16990;49.056;9.240;2022-08-24T10:30:20;3.55;;;1.15;;
30181;SDS011;16990;49.056;9.240;2022-08-24T10:33:23;5.10;;;1.58;;
30181;SDS011;16990;49.056;9.240;2022-08-24T10:39:42;1.90;;;1.10;;
30181;SDS011;16990;49.056;9.240;2022-08-24T10:53:15;5.07;;;1.52;;
30181;SDS011;16990;49.056;9.240;2022-08-24T10:56:11;2.42;;;1.40;;
30181;SDS011;16990;49.056;9.240;2022-08-24T10:59:02;1.98;;;1.50;;
30181;SDS011;16990;49.056;9.240;2022-08-24T11:02:04;3.50;;;1.35;;
30181;SDS011;16990;49.056;9.240;2022-08-24T11:04:54;4.70;;;1.58;;
30181;SDS011;16990;49.056;9.240;2022-08-24T11:07:53;2.80;;;1.40;;
30181;SDS011;16990;49.056;9.240;2022-08-24T11:10:42;6.10;;;1.55;;
30181;SDS011;16990;49.056;9.240;2022-08-24T11:13:29;2.25;;;1.25;;
30181;SDS011;16990;49.056;9.240;2022-08-24T11:16:22;1.98;;;1.50;;
30181;SDS011;16990;49.056;9.240;2022-08-24T11:19:13;3.08;;;1.30;;
30181;SDS011;16990;49.056;9.240;2022-08-24T11:22:29;2.60;;;1.80;;
30181;SDS011;16990;49.056;9.240;2022-08-24T11:25:21;2.25;;;1.35;;
30181;SDS011;16990;49.056;9.240;2022-08-24T11:28:17;1.92;;;1.48;;
30181;SDS011;16990;49.056;9.240;2022-08-24T11:31:09;3.20;;;1.48;;
30181;SDS011;16990;49.056;9.240;2022-08-24T11:33:58;2.45;;;1.77;;
30181;SDS011;16990;49.056;9.240;2022-08-24T11:36:49;3.08;;;1.70;;
30181;SDS011;16990;49.056;9.240;2022-08-24T11:39:36;1.55;;;1.42;;
30181;SDS011;16990;49.056;9.240;2022-08-24T11:42:26;4.10;;;1.80;;
30181;SDS011;16990;49.056;9.240;2022-08-24T11:45:23;4.55;;;1.60;;
30181;SDS011;16990;49.056;9.240;2022-08-24T11:48:17;9.90;;;1.77;;
30181;SDS011;16990;49.056;9.240;2022-08-24T11:51:14;2.60;;;1.52;;
30181;SDS011;16990;49.056;9.240;2022-08-24T11:54:12;2.25;;;1.50;;
30181;SDS011;16990;49.056;9.240;2022-08-24T11:57:10;4.55;;;1.50;;
30181;SDS011;16990;49.056;9.240;2022-08-24T12:00:01;3.63;;;1.80;;
30181;SDS011;16990;49.056;9.240;2022-08-24T12:02:54;7.50;;;1.60;;
30181;SDS011;16990;49.056;9.240;2022-08-24T12:08:40;5.50;;;1.48;;
30181;SDS011;16990;49.056;9.240;2022-08-24T12:11:38;3.22;;;1.58;;
30181;SDS011;16990;49.056;9.240;2022-08-24T12:14:31;4.40;;;1.40;;
30181;SDS011;16990;49.056;9.240;2022-08-24T12:17:26;3.60;;;1.25;;
30181;SDS011;16990;49.056;9.240;2022-08-24T12:20:21;7.50;;;1.58;;
30181;SDS011;16990;49.056;9.240;2022-08-24T12:23:13;5.85;;;1.40;;
30181;SDS011;16990;49.056;9.240;2022-08-24T12:26:07;1.70;;;1.20;;
30181;SDS011;16990;49.056;9.240;2022-08-24T12:29:00;7.40;;;1.58;;
30181;SDS011;16990;49.056;9.240;2022-08-24T12:31:53;4.50;;;1.75;;
30181;SDS011;16990;49.056;9.240;2022-08-24T12:34:45;3.95;;;1.50;;
30181;SDS011;16990;49.056;9.240;2022-08-24T12:37:40;4.82;;;1.67;;
30181;SDS011;16990;49.056;9.240;2022-08-24T12:40:32;2.45;;;1.50;;
30181;SDS011;16990;49.056;9.240;2022-08-24T12:43:25;3.83;;;2.03;;
30181;SDS011;16990;49.056;9.240;2022-08-24T12:46:20;8.35;;;1.65;;
30181;SDS011;16990;49.056;9.240;2022-08-24T12:49:10;1.33;;;1.23;;
30181;SDS011;16990;49.056;9.240;2022-08-24T12:55:31;3.35;;;1.60;;
30181;SDS011;16990;49.056;9.240;2022-08-24T12:58:48;11.35;;;1.98;;
30181;SDS011;16990;49.056;9.240;2022-08-24T13:01:44;2.80;;;1.42;;
30181;SDS011;16990;49.056;9.240;2022-08-24T13:04:34;1.65;;;1.38;;
30181;SDS011;16990;49.056;9.240;2022-08-24T13:07:25;15.00;;;1.67;;
30181;SDS011;16990;49.056;9.240;2022-08-24T13:10:33;1.95;;;1.52;;
30181;SDS011;16990;49.056;9.240;2022-08-24T13:13:38;6.15;;;1.63;;
30181;SDS011;16990;49.056;9.240;2022-08-24T13:16:52;8.73;;;1.25;;
30181;SDS011;16990;49.056;9.240;2022-08-24T13:23:06;3.65;;;1.67;;
30181;SDS011;16990;49.056;9.240;2022-08-24T13:26:02;2.83;;;1.30;;
30181;SDS011;16990;49.056;9.240;2022-08-24T13:29:07;4.13;;;1.45;;
30181;SDS011;16990;49.056;9.240;2022-08-24T13:31:55;4.15;;;1.45;;
30181;SDS011;16990;49.056;9.240;2022-08-24T13:34:45;2.95;;;1.50;;
30181;SDS011;16990;49.056;9.240;2022-08-24T13:37:35;3.42;;;1.40;;
30181;SDS011;16990;49.056;9.240;2022-08-24T13:40:22;3.15;;;1.58;;
30181;SDS011;16990;49.056;9.240;2022-08-24T13:43:29;4.35;;;1.50;;
30181;SDS011;16990;49.056;9.240;2022-08-24T13:46:27;2.17;;;1.17;;
30181;SDS011;16990;49.056;9.240;2022-08-24T13:49:32;1.90;;;1.25;;
30181;SDS011;16990;49.056;9.240;2022-08-24T13:52:31;4.50;;;1.48;;
30181;SDS011;16990;49.056;9.240;2022-08-24T13:55:27;4.40;;;1.63;;
30181;SDS011;16990;49.056;9.240;2022-08-24T13:58:20;5.75;;;1.67;;
30181;SDS011;16990;49.056;9.240;2022-08-24T14:01:22;4.22;;;1.20;;
30181;SDS011;16990;49.056;9.240;2022-08-24T14:04:18;1.45;;;1.35;;
30181;SDS011;16990;49.056;9.240;2022-08-24T14:07:23;7.80;;;1.73;;
30181;SDS011;16990;49.056;9.240;2022-08-24T14:10:21;2.25;;;1.50;;
30181;SDS011;16990;49.056;9.240;2022-08-24T14:13:27;2.85;;;1.20;;
30181;SDS011;16990;49.056;9.240;2022-08-24T14:16:25;2.63;;;1.50;;
30181;SDS011;16990;49.056;9.240;2022-08-24T14:19:41;2.83;;;1.30;;
30181;SDS011;16990;49.056;9.240;2022-08-24T14:22:39;2.92;;;1.30;;
30181;SDS011;16990;49.056;9.240;2022-08-24T14:25:37;2.65;;;1.33;;
30181;SDS011;16990;49.056;9.240;2022-08-24T14:28:35;1.75;;;1.50;;
30181;SDS011;16990;49.056;9.240;2022-08-24T14:31:24;2.45;;;1.38;;
30181;SDS011;16990;49.056;9.240;2022-08-24T14:34:14;4.38;;;1.20;;
30181;SDS011;16990;49.056;9.240;2022-08-24T14:37:16;3.65;;;1.27;;
30181;SDS011;16990;49.056;9.240;2022-08-24T14:40:11;3.70;;;1.88;;
30181;SDS011;16990;49.056;9.240;2022-08-24T14:43:13;2.22;;;1.83;;
30181;SDS011;16990;49.056;9.240;2022-08-24T14:46:09;3.87;;;1.27;;
30181;SDS011;16990;49.056;9.240;2022-08-24T14:49:07;2.63;;;1.35;;
30181;SDS011;16990;49.056;9.240;2022-08-24T14:52:03;8.57;;;1.40;;
30181;SDS011;16990;49.056;9.240;2022-08-24T14:55:03;3.95;;;1.40;;
30181;SDS011;16990;49.056;9.240;2022-08-24T14:58:00;1.80;;;1.30;;
30181;SDS011;16990;49.056;9.240;2022-08-24T15:04:21;2.60;;;1.40;;
30181;SDS011;16990;49.056;9.240;2022-08-24T15:07:23;7.13;;;1.50;;
30181;SDS011;16990;49.056;9.240;2022-08-24T15:10:13;5.13;;;1.40;;
30181;SDS011;16990;49.056;9.240;2022-08-24T15:13:02;3.78;;;0.98;;
30181;SDS011;16990;49.056;9.240;2022-08-24T15:15:56;4.22;;;1.27;;
30181;SDS011;16990;49.056;9.240;2022-08-24T15:18:48;4.55;;;1.40;;
30181;SDS011;16990;49.056;9.240;2022-08-24T15:21:44;2.08;;;1.08;;
30181;SDS011;16990;49.056;9.240;2022-08-24T15:24:38;4.75;;;1.40;;
30181;SDS011;16990;49.056;9.240;2022-08-24T15:27:36;2.50;;;1.40;;
30181;SDS011;16990;49.056;9.240;2022-08-24T15:30:28;3.08;;;1.35;;
30181;SDS011;16990;49.056;9.240;2022-08-24T15:33:17;6.32;;;1.20;;
30181;SDS011;16990;49.056;9.240;2022-08-24T15:36:07;1.67;;;1.38;;
30181;SDS011;16990;49.056;9.240;2022-08-24T15:38:55;5.00;;;1.35;;
30181;SDS011;16990;49.056;9.240;2022-08-24T15:41:42;1.70;;;1.20;;
30181;SDS011;16990;49.056;9.240;2022-08-24T15:44:32;3.92;;;1.88;;
30181;SDS011;16990;49.056;9.240;2022-08-24T15:47:23;6.18;;;1.30;;
30181;SDS011;16990;49.056;9.240;2022-08-24T15:50:19;1.52;;;1.42;;
30181;SDS011;16990;49.056;9.240;2022-08-24T15:53:23;1.67;;;1.15;;
30181;SDS011;16990;49.056;9.240;2022-08-24T15:56:28;4.00;;;1.35;;
30181;SDS011;16990;49.056;9.240;2022-08-24T15:59:23;5.35;;;1.50;;
30181;SDS011;16990;49.056;9.240;2022-08-24T16:02:21;2.08;;;1.30;;
30181;SDS011;16990;49.056;9.240;2022-08-24T16:05:12;3.75;;;1.35;;
30181;SDS011;16990;49.056;9.240;2022-08-24T16:08:05;3.10;;;1.40;;
30181;SDS011;16990;49.056;9.240;2022-08-24T16:10:55;1.90;;;1.20;;
30181;SDS011;16990;49.056;9.240;2022-08-24T16:13:53;2.35;;;1.20;;
30181;SDS011;16990;49.056;9.240;2022-08-24T16:16:40;7.57;;;1.30;;
30181;SDS011;16990;49.056;9.240;2022-08-24T16:19:31;6.90;;;1.60;;
30181;SDS011;16990;49.056;9.240;2022-08-24T16:22:24;4.60;;;1.58;;
30181;SDS011;16990;49.056;9.240;2022-08-24T16:25:21;4.60;;;1.50;;
30181;SDS011;16990;49.056;9.240;2022-08-24T16:30:59;2.33;;;1.50;;
30181;SDS011;16990;49.056;9.240;2022-08-24T16:33:47;2.28;;;1.05;;
30181;SDS011;16990;49.056;9.240;2022-08-24T16:36:35;3.75;;;1.40;;
30181;SDS011;16990;49.056;9.240;2022-08-24T16:39:22;4.55;;;1.77;;
30181;SDS011;16990;49.056;9.240;2022-08-24T16:42:10;2.70;;;1.42;;
30181;SDS011;16990;49.056;9.240;2022-08-24T16:45:01;1.85;;;1.30;;
30181;SDS011;16990;49.056;9.240;2022-08-24T16:47:50;2.53;;;1.40;;
30181;SDS011;16990;49.056;9.240;2022-08-24T16:50:37;1.63;;;1.30;;
30181;SDS011;16990;49.056;9.240;2022-08-24T16:53:25;6.60;;;1.42;;
30181;SDS011;16990;49.056;9.240;2022-08-24T16:56:12;5.43;;;1.65;;
30181;SDS011;16990;49.056;9.240;2022-08-24T16:58:59;4.63;;;1.33;;
30181;SDS011;16990;49.056;9.240;2022-08-24T17:01:46;4.60;;;1.48;;
30181;SDS011;16990;49.056;9.240;2022-08-24T17:04:34;5.03;;;1.38;;
30181;SDS011;16990;49.056;9.240;2022-08-24T17:07:22;15.65;;;1.67;;
30181;SDS011;16990;49.056;9.240;2022-08-24T17:10:12;3.72;;;1.27;;
30181;SDS011;16990;49.056;9.240;2022-08-24T17:13:00;5.32;;;1.55;;
30181;SDS011;16990;49.056;9.240;2022-08-24T17:15:47;7.53;;;1.50;;
30181;SDS011;16990;49.056;9.240;2022-08-24T17:18:34;2.78;;;1.30;;
30181;SDS011;16990;49.056;9.240;2022-08-24T17:21:21;6.10;;;1.30;;
30181;SDS011;16990;49.056;9.240;2022-08-24T17:24:08;7.57;;;1.35;;
30181;SDS011;16990;49.056;9.240;2022-08-24T17:26:57;2.38;;;1.60;;
30181;SDS011;16990;49.056;9.240;2022-08-24T17:29:45;2.92;;;1.75;;
30181;SDS011;16990;49.056;9.240;2022-08-24T17:32:33;8.23;;;1.65;;
30181;SDS011;16990;49.056;9.240;2022-08-24T17:35:21;2.95;;;1.58;;
30181;SDS011;16990;49.056;9.240;2022-08-24T17:38:09;1.35;;;1.25;;
30181;SDS011;16990;49.056;9.240;2022-08-24T17:40:56;1.80;;;1.50;;
30181;SDS011;16990;49.056;9.240;2022-08-24T17:43:46;2.88;;;1.70;;
30181;SDS011;16990;49.056;9.240;2022-08-24T17:46:32;2.83;;;1.55;;
30181;SDS011;16990;49.056;9.240;2022-08-24T17:49:20;1.98;;;1.50;;
30181;SDS011;16990;49.056;9.240;2022-08-24T17:52:07;2.30;;;1.20;;
30181;SDS011;16990;49.056;9.240;2022-08-24T17:54:46;4.90;;;1.63;;
30181;SDS011;16990;49.056;9.240;2022-08-24T17:57:33;5.22;;;1.58;;
30181;SDS011;16990;49.056;9.240;2022-08-24T18:00:22;5.05;;;2.00;;